Half Day, Illinois
Current Conditions -  °F | °C
As of 3:52 AM on Wednesday 26 Nov 2014 (Local Time) from KPWK Reporting Station
Haze Haze  
Wind Chill: 19°   Ceiling: Unl
Heat Index: 19°   Visibility: 6mi
Dew Point: 15°   Wind: 3mph
Humidity: 85%   Direction: 90°E
Pressure: 30.17"   Gusts: NA
Location:  42.1941°N, 87.9317°W
Report Text: KPWK 260952Z AUTO 09003KT 6SM BR CLR M07/M09 A3017 RMK AO2 SLP225 T10721094
Loading
Personal Weather Stations






























Interactive Weather Map New forecast layout! Learn more

10-Day Weather Forecast

Advertisements
Track Severe Weather on mobile